createdAt,value
2019-01-26T00:00:49.503Z,-4.04
2019-01-26T00:02:57.185Z,-4.03
2019-01-26T00:05:03.865Z,-4.06
2019-01-26T00:07:10.414Z,-4.08
2019-01-26T00:09:16.636Z,-4.14
2019-01-26T00:11:22.959Z,-4.19
2019-01-26T00:13:29.716Z,-4.24
2019-01-26T00:15:36.394Z,-4.29
2019-01-26T00:17:44.285Z,-4.35
2019-01-26T00:19:50.460Z,-4.40
2019-01-26T00:21:59.743Z,-4.46
2019-01-26T00:24:08.748Z,-4.51
2019-01-26T00:26:16.600Z,-4.55
2019-01-26T00:28:22.771Z,-4.61
2019-01-26T00:30:30.302Z,-4.69
2019-01-26T00:32:40.299Z,-4.72
2019-01-26T00:34:46.654Z,-4.79
2019-01-26T00:36:52.922Z,-4.84
2019-01-26T00:38:59.343Z,-4.87
2019-01-26T00:41:05.731Z,-4.89
2019-01-26T00:43:12.141Z,-4.88
2019-01-26T00:45:19.700Z,-4.89
2019-01-26T00:47:27.631Z,-4.88
2019-01-26T00:49:33.748Z,-4.85
2019-01-26T00:51:41.451Z,-4.82
2019-01-26T00:53:48.488Z,-4.80
2019-01-26T00:55:54.802Z,-4.79
2019-01-26T00:58:00.934Z,-4.78
2019-01-26T01:00:22.235Z,-4.74
2019-01-26T01:02:28.298Z,-4.70
2019-01-26T01:04:34.518Z,-4.68
2019-01-26T01:06:40.938Z,-4.62
2019-01-26T01:08:47.296Z,-4.61
2019-01-26T01:10:57.154Z,-4.59
2019-01-26T01:13:03.080Z,-4.57
2019-01-26T01:15:14.468Z,-4.56
2019-01-26T01:17:22.454Z,-4.55
2019-01-26T01:19:30.217Z,-4.53
2019-01-26T01:21:37.562Z,-4.55
2019-01-26T01:23:44.109Z,-4.54
2019-01-26T01:25:50.489Z,-4.55
2019-01-26T01:27:57.024Z,-4.53
2019-01-26T01:30:03.108Z,-4.51
2019-01-26T01:32:11.501Z,-4.51
2019-01-26T01:34:19.510Z,-4.50
2019-01-26T01:36:25.890Z,-4.52
2019-01-26T01:38:32.179Z,-4.53
2019-01-26T01:40:40.259Z,-4.54
2019-01-26T01:42:49.112Z,-4.53
2019-01-26T01:44:56.851Z,-4.50
2019-01-26T01:47:03.634Z,-4.50
2019-01-26T01:49:10.119Z,-4.49
2019-01-26T01:51:16.570Z,-4.45
2019-01-26T01:53:22.811Z,-4.46
2019-01-26T01:55:29.651Z,-4.45
2019-01-26T01:57:36.218Z,-4.45
2019-01-26T01:59:43.847Z,-4.46
2019-01-26T02:01:50.116Z,-4.46
2019-01-26T02:03:56.371Z,-4.45
2019-01-26T02:06:03.360Z,-4.48
2019-01-26T02:08:16.270Z,-4.44
2019-01-26T02:10:24.221Z,-4.43
2019-01-26T02:12:30.438Z,-4.43
2019-01-26T02:14:38.520Z,-4.41
2019-01-26T02:16:50.049Z,-4.41
2019-01-26T02:18:53.924Z,-4.40
2019-01-26T02:21:01.926Z,-4.41
2019-01-26T02:23:08.224Z,-4.38
2019-01-26T02:25:14.694Z,-4.37
2019-01-26T02:27:21.603Z,-4.42
2019-01-26T02:29:27.663Z,-4.41
2019-01-26T02:31:34.246Z,-4.39
2019-01-26T02:33:40.711Z,-4.41
2019-01-26T02:35:46.914Z,-4.40
2019-01-26T02:37:53.247Z,-4.45
2019-01-26T02:40:00.848Z,-4.44
2019-01-26T02:42:08.492Z,-4.44
2019-01-26T02:44:17.070Z,-4.44
2019-01-26T02:46:23.182Z,-4.41
2019-01-26T02:48:29.600Z,-4.42
2019-01-26T02:50:36.527Z,-4.42
2019-01-26T02:52:43.970Z,-4.41
2019-01-26T02:54:50.052Z,-4.37
2019-01-26T02:56:56.127Z,-4.36
2019-01-26T02:59:03.378Z,-4.38
2019-01-26T03:01:09.635Z,-4.35
2019-01-26T03:03:16.892Z,-4.39
2019-01-26T03:05:23.583Z,-4.39
2019-01-26T03:07:31.291Z,-4.41
2019-01-26T03:09:37.983Z,-4.38
2019-01-26T03:11:45.083Z,-4.36
2019-01-26T03:13:52.851Z,-4.36
2019-01-26T03:16:02.072Z,-4.35
2019-01-26T03:18:08.341Z,-4.32
2019-01-26T03:20:16.809Z,-4.31
2019-01-26T03:22:22.789Z,-4.32
2019-01-26T03:24:29.567Z,-4.28
2019-01-26T03:26:37.477Z,-4.27
2019-01-26T03:28:43.742Z,-4.27
2019-01-26T03:30:51.993Z,-4.31
2019-01-26T03:32:57.990Z,-4.28
2019-01-26T03:37:39.943Z,-4.29
2019-01-26T03:42:30.954Z,-4.31
2019-01-26T03:44:37.296Z,-4.29
2019-01-26T03:46:43.762Z,-4.28
2019-01-26T03:48:49.913Z,-4.25
2019-01-26T03:50:56.231Z,-4.25
2019-01-26T03:53:02.321Z,-4.24
2019-01-26T03:55:12.583Z,-4.24
2019-01-26T03:57:20.253Z,-4.25
2019-01-26T03:59:28.084Z,-4.22
2019-01-26T04:01:34.446Z,-4.20
2019-01-26T04:03:40.498Z,-4.24
2019-01-26T04:05:48.146Z,-4.24
2019-01-26T04:07:54.456Z,-4.23
2019-01-26T04:10:00.606Z,-4.23
2019-01-26T04:12:07.034Z,-4.20
2019-01-26T04:14:13.132Z,-4.20
2019-01-26T04:16:20.050Z,-4.18
2019-01-26T04:18:26.247Z,-4.18
2019-01-26T04:20:32.885Z,-4.16
2019-01-26T04:22:40.368Z,-4.19
2019-01-26T04:24:47.229Z,-4.15
2019-01-26T04:26:55.573Z,-4.18
2019-01-26T04:29:02.131Z,-4.19
2019-01-26T04:31:08.574Z,-4.17
2019-01-26T04:33:16.969Z,-4.16
2019-01-26T04:35:23.143Z,-4.16
2019-01-26T04:37:29.646Z,-4.15
2019-01-26T04:39:36.262Z,-4.15
2019-01-26T04:41:42.329Z,-4.11
2019-01-26T04:43:48.369Z,-4.10
2019-01-26T04:45:54.891Z,-4.11
2019-01-26T04:48:01.363Z,-4.10
2019-01-26T04:50:11.856Z,-4.09
2019-01-26T04:52:18.320Z,-4.10
2019-01-26T04:54:26.075Z,-4.10
2019-01-26T04:56:32.729Z,-4.03
2019-01-26T04:58:39.249Z,-3.85
2019-01-26T05:00:45.773Z,-3.80
2019-01-26T05:02:52.510Z,-3.55
2019-01-26T05:04:59.517Z,-3.56
2019-01-26T05:07:05.710Z,-3.42
2019-01-26T05:09:11.811Z,-3.42
2019-01-26T05:11:18.456Z,-3.51
2019-01-26T05:13:26.180Z,-3.19
2019-01-26T05:15:32.469Z,-2.87
2019-01-26T05:17:39.523Z,-2.93
2019-01-26T05:19:46.054Z,-3.07
2019-01-26T05:21:52.345Z,-3.13
2019-01-26T05:23:58.651Z,-3.26
2019-01-26T05:26:05.018Z,-3.39
2019-01-26T05:28:12.162Z,-3.35
2019-01-26T05:30:25.625Z,-3.45
2019-01-26T05:32:31.783Z,-3.50
2019-01-26T05:34:39.883Z,-3.51
2019-01-26T05:36:47.258Z,-3.51
2019-01-26T05:38:53.635Z,-3.46
2019-01-26T05:41:00.012Z,-3.37
2019-01-26T05:43:06.055Z,-3.41
2019-01-26T05:45:18.841Z,-3.34
2019-01-26T05:47:26.755Z,-3.36
2019-01-26T05:49:33.126Z,-3.36
2019-01-26T05:51:41.756Z,-3.39
2019-01-26T05:53:48.772Z,-3.33
2019-01-26T05:55:55.199Z,-3.36
2019-01-26T05:58:01.329Z,-3.37
2019-01-26T06:00:13.348Z,-3.28
2019-01-26T06:02:19.806Z,-3.28
2019-01-26T06:04:26.879Z,-3.43
2019-01-26T06:06:33.375Z,-3.47
2019-01-26T06:08:44.303Z,-3.55
2019-01-26T06:10:55.820Z,-3.51
2019-01-26T06:13:02.922Z,-3.50
2019-01-26T06:15:12.206Z,-3.56
2019-01-26T06:17:18.773Z,-3.61
2019-01-26T06:19:25.117Z,-3.62
2019-01-26T06:21:32.091Z,-3.58
2019-01-26T06:23:38.962Z,-3.48
2019-01-26T06:25:45.039Z,-3.50
2019-01-26T06:27:52.992Z,-3.42
2019-01-26T06:30:00.012Z,-3.38
2019-01-26T06:32:06.343Z,-3.31
2019-01-26T06:34:13.263Z,-3.36
2019-01-26T06:36:19.463Z,-3.42
2019-01-26T06:38:25.694Z,-3.40
2019-01-26T06:40:32.146Z,-3.53
2019-01-26T06:42:38.271Z,-3.64
2019-01-26T06:44:46.120Z,-3.85
2019-01-26T06:46:52.370Z,-3.80
2019-01-26T06:48:59.227Z,-3.95
2019-01-26T06:51:06.198Z,-3.88
2019-01-26T06:53:12.417Z,-3.83
2019-01-26T06:55:19.455Z,-3.73
2019-01-26T06:57:25.491Z,-3.67
2019-01-26T06:59:31.571Z,-3.68
2019-01-26T07:01:40.994Z,-3.63
2019-01-26T07:03:48.851Z,-3.63
2019-01-26T07:05:59.853Z,-3.61
2019-01-26T07:08:06.332Z,-3.56
2019-01-26T07:10:12.632Z,-3.63
2019-01-26T07:12:19.968Z,-3.67
2019-01-26T07:14:26.231Z,-3.78
2019-01-26T07:16:32.903Z,-3.80
2019-01-26T07:18:39.037Z,-3.80
2019-01-26T07:20:46.855Z,-3.77
2019-01-26T07:22:53.001Z,-3.70
2019-01-26T07:25:00.995Z,-3.72
2019-01-26T07:27:07.412Z,-3.77
2019-01-26T07:29:13.561Z,-3.83
2019-01-26T07:31:19.901Z,-3.86
2019-01-26T07:33:25.946Z,-3.91
2019-01-26T07:35:32.311Z,-3.97
2019-01-26T07:37:40.505Z,-4.02
2019-01-26T07:39:48.272Z,-4.07
2019-01-26T07:41:54.700Z,-4.07
2019-01-26T07:44:00.942Z,-4.07
2019-01-26T07:46:07.200Z,-4.03
2019-01-26T07:48:16.920Z,-3.95
2019-01-26T07:50:26.482Z,-3.89
2019-01-26T07:52:32.922Z,-3.91
2019-01-26T07:54:40.954Z,-3.96
2019-01-26T07:56:47.321Z,-3.96
2019-01-26T07:58:54.401Z,-3.96
2019-01-26T08:01:01.461Z,-3.95
2019-01-26T08:03:07.620Z,-4.01
2019-01-26T08:05:13.961Z,-4.04
2019-01-26T08:07:20.548Z,-4.04
2019-01-26T08:09:28.251Z,-4.06
2019-01-26T08:11:34.422Z,-4.11
2019-01-26T08:13:41.976Z,-4.07
2019-01-26T08:15:49.692Z,-4.09
2019-01-26T08:17:56.764Z,-4.09
2019-01-26T08:20:03.581Z,-4.13
2019-01-26T08:22:09.785Z,-4.17
2019-01-26T08:24:15.955Z,-4.17
2019-01-26T08:26:23.171Z,-4.17
2019-01-26T08:28:29.294Z,-4.14
2019-01-26T08:30:35.610Z,-4.12
2019-01-26T08:32:42.424Z,-4.10
2019-01-26T08:34:48.776Z,-4.03
2019-01-26T08:36:54.943Z,-3.91
2019-01-26T08:39:02.281Z,-3.85
2019-01-26T08:41:08.597Z,-3.71
2019-01-26T08:43:14.975Z,-3.53
2019-01-26T08:45:21.107Z,-3.35
2019-01-26T08:47:27.431Z,-3.23
2019-01-26T08:49:33.702Z,-3.10
2019-01-26T08:51:40.508Z,-3.02
2019-01-26T08:53:47.842Z,-2.90
2019-01-26T08:55:54.256Z,-2.85
2019-01-26T08:58:03.029Z,-2.76
2019-01-26T09:00:28.590Z,-2.65
2019-01-26T09:02:46.020Z,-2.49
2019-01-26T09:04:55.768Z,-2.49
2019-01-26T09:07:02.948Z,-2.35
2019-01-26T09:09:11.591Z,-2.19
2019-01-26T09:11:17.711Z,-2.18
2019-01-26T09:13:23.990Z,-2.34
2019-01-26T09:15:32.053Z,-2.26
2019-01-26T09:17:38.331Z,-2.14
2019-01-26T09:19:46.023Z,-2.23
2019-01-26T09:21:55.410Z,-2.27
2019-01-26T09:24:02.551Z,-2.18
2019-01-26T09:26:10.693Z,-2.15
2019-01-26T09:28:17.157Z,-2.25
2019-01-26T09:30:23.679Z,-2.19
2019-01-26T09:32:32.257Z,-2.06
2019-01-26T09:34:39.741Z,-2.00
2019-01-26T09:36:46.150Z,-1.90
2019-01-26T09:38:52.187Z,-1.72
2019-01-26T09:40:58.618Z,-1.49
2019-01-26T09:43:05.046Z,-1.54
2019-01-26T09:45:20.611Z,-1.59
2019-01-26T09:47:26.761Z,-1.67
2019-01-26T09:49:33.140Z,-1.68
2019-01-26T09:51:42.671Z,-1.54
2019-01-26T09:53:49.281Z,-1.54
2019-01-26T09:55:57.321Z,-1.67
2019-01-26T09:58:03.571Z,-1.79
2019-01-26T10:00:26.340Z,-2.10
2019-01-26T10:02:33.721Z,-2.03
2019-01-26T10:04:40.557Z,-1.88
2019-01-26T10:06:46.998Z,-1.74
2019-01-26T10:08:53.320Z,-1.63
2019-01-26T10:11:00.012Z,-1.76
2019-01-26T10:13:06.341Z,-1.83
2019-01-26T10:15:23.471Z,-1.80
2019-01-26T10:17:30.350Z,-1.73
2019-01-26T10:19:37.440Z,-1.66
2019-01-26T10:21:43.901Z,-1.72
2019-01-26T10:23:51.281Z,-1.69
2019-01-26T10:25:57.877Z,-1.75
2019-01-26T10:28:04.581Z,-2.01
2019-01-26T10:30:25.722Z,-2.11
2019-01-26T10:32:32.682Z,-2.10
2019-01-26T10:34:39.049Z,-2.13
2019-01-26T10:36:47.906Z,-2.04
2019-01-26T10:38:55.570Z,-1.91
2019-01-26T10:41:03.381Z,-1.98
2019-01-26T10:43:10.768Z,-1.97
2019-01-26T10:45:19.490Z,-1.83
2019-01-26T10:47:27.730Z,-1.72
2019-01-26T10:49:34.311Z,-1.57
2019-01-26T10:51:40.491Z,-1.61
2019-01-26T10:53:49.530Z,-1.57
2019-01-26T10:55:57.491Z,-1.60
2019-01-26T10:58:05.961Z,-1.54
2019-01-26T11:00:19.961Z,-1.54
2019-01-26T11:02:26.378Z,-1.54
2019-01-26T11:04:32.512Z,-1.47
2019-01-26T11:06:38.690Z,-1.69
2019-01-26T11:08:46.699Z,-1.63
2019-01-26T11:10:53.559Z,-1.48
2019-01-26T11:13:00.103Z,-1.37
2019-01-26T11:15:10.062Z,-1.37
2019-01-26T11:17:16.945Z,-1.27
2019-01-26T11:19:24.026Z,-0.78
2019-01-26T11:21:34.081Z,-0.94
2019-01-26T11:23:41.046Z,-0.85
2019-01-26T11:25:47.095Z,-0.81
2019-01-26T11:27:53.563Z,-0.35
2019-01-26T11:30:00.210Z,-0.26
2019-01-26T11:32:06.626Z,-0.14
2019-01-26T11:34:13.382Z,-0.13
2019-01-26T11:36:20.126Z,0.23
2019-01-26T11:38:27.486Z,0.21
2019-01-26T11:40:35.086Z,0.15
2019-01-26T11:42:41.986Z,0.33
2019-01-26T11:45:05.852Z,0.14
2019-01-26T11:47:16.114Z,0.21
2019-01-26T11:49:23.395Z,0.12
2019-01-26T11:51:31.195Z,-0.16
2019-01-26T11:53:38.337Z,-0.18
2019-01-26T11:55:46.279Z,-0.37
2019-01-26T11:57:52.731Z,-0.39
2019-01-26T12:00:09.766Z,-0.50
2019-01-26T12:02:18.177Z,-0.61
2019-01-26T12:04:26.177Z,-0.48
2019-01-26T12:06:35.354Z,-0.40
2019-01-26T12:08:41.656Z,-0.38
2019-01-26T12:10:48.143Z,-0.45
2019-01-26T12:12:54.375Z,-0.66
2019-01-26T12:15:00.521Z,-0.81
2019-01-26T12:17:07.315Z,-0.93
2019-01-26T12:19:13.692Z,-1.00
2019-01-26T12:21:26.868Z,-0.98
2019-01-26T12:23:33.443Z,-0.97
2019-01-26T12:25:39.523Z,-1.19
2019-01-26T12:27:45.987Z,-1.11
2019-01-26T12:29:53.363Z,-0.99
2019-01-26T12:32:00.440Z,-0.98
2019-01-26T12:34:06.823Z,-1.04
2019-01-26T12:36:13.318Z,-1.11
2019-01-26T12:38:19.846Z,-1.09
2019-01-26T12:40:28.494Z,-1.08
2019-01-26T12:42:34.934Z,-1.20
2019-01-26T12:44:41.274Z,-1.15
2019-01-26T12:46:47.654Z,-1.16
2019-01-26T12:48:54.340Z,-1.10
2019-01-26T12:51:01.475Z,-1.04
2019-01-26T12:53:08.073Z,-1.02
2019-01-26T12:55:20.096Z,-1.02
2019-01-26T12:57:26.579Z,-1.01
2019-01-26T12:59:32.882Z,-1.10
2019-01-26T13:01:40.695Z,-1.14
2019-01-26T13:03:47.055Z,-1.10
2019-01-26T13:05:53.724Z,-1.13
2019-01-26T13:07:59.900Z,-1.13
2019-01-26T13:10:10.903Z,-1.14
2019-01-26T13:12:17.694Z,-1.15
2019-01-26T13:14:24.973Z,-1.15
2019-01-26T13:16:35.985Z,-1.37
2019-01-26T13:18:43.647Z,-1.31
2019-01-26T13:20:50.086Z,-1.28
2019-01-26T13:22:57.261Z,-1.28
2019-01-26T13:25:08.316Z,-1.29
2019-01-26T13:27:14.949Z,-1.34
2019-01-26T13:29:21.395Z,-1.33
2019-01-26T13:31:28.008Z,-1.26
2019-01-26T13:33:34.443Z,-1.27
2019-01-26T13:35:41.050Z,-1.26
2019-01-26T13:37:47.443Z,-1.26
2019-01-26T13:39:55.277Z,-1.35
2019-01-26T13:42:03.284Z,-1.40
2019-01-26T13:44:20.882Z,-1.38
2019-01-26T13:46:28.004Z,-1.38
2019-01-26T13:48:35.414Z,-1.49
2019-01-26T13:50:43.085Z,-1.51
2019-01-26T13:52:50.279Z,-1.46
2019-01-26T13:54:57.505Z,-1.47
2019-01-26T13:57:04.043Z,-1.54
2019-01-26T13:59:10.326Z,-1.52
2019-01-26T14:01:17.303Z,-1.53
2019-01-26T14:03:23.666Z,-1.51
2019-01-26T14:05:30.242Z,-1.61
2019-01-26T14:07:36.725Z,-1.65
2019-01-26T14:09:46.954Z,-1.73
2019-01-26T14:11:53.648Z,-1.75
2019-01-26T14:14:00.585Z,-1.74
2019-01-26T14:16:07.538Z,-1.69
2019-01-26T14:18:14.251Z,-1.67
2019-01-26T14:20:28.619Z,-1.64
2019-01-26T14:22:34.853Z,-1.71
2019-01-26T14:24:41.512Z,-1.77
2019-01-26T14:26:49.816Z,-1.80
2019-01-26T14:28:56.282Z,-1.80
2019-01-26T14:31:03.030Z,-1.82
2019-01-26T14:33:10.021Z,-1.87
2019-01-26T14:35:18.164Z,-1.86
2019-01-26T14:37:24.611Z,-1.82
2019-01-26T14:39:31.380Z,-1.81
2019-01-26T14:41:38.410Z,-1.80
2019-01-26T14:43:44.870Z,-1.75
2019-01-26T14:45:51.519Z,-1.78
2019-01-26T14:47:58.188Z,-1.76
2019-01-26T14:50:07.370Z,-1.76
2019-01-26T14:52:15.350Z,-1.78
2019-01-26T14:54:22.297Z,-1.87
2019-01-26T14:56:29.191Z,-1.90
2019-01-26T14:58:35.650Z,-1.91
2019-01-26T15:00:42.803Z,-1.94
2019-01-26T15:02:49.370Z,-1.94
2019-01-26T15:04:56.047Z,-1.95
2019-01-26T15:07:04.377Z,-1.94
2019-01-26T15:09:11.261Z,-1.97
2019-01-26T15:11:20.960Z,-2.04
2019-01-26T15:13:27.621Z,-2.09
2019-01-26T15:15:34.558Z,-2.12
2019-01-26T15:17:40.971Z,-2.13
2019-01-26T15:19:47.961Z,-2.10
2019-01-26T15:21:54.508Z,-2.09
2019-01-26T15:24:00.990Z,-2.08
2019-01-26T15:26:07.290Z,-2.12
2019-01-26T15:28:13.710Z,-2.14
2019-01-26T15:30:29.278Z,-2.17
2019-01-26T15:32:36.051Z,-2.18
2019-01-26T15:34:42.421Z,-2.16
2019-01-26T15:36:49.379Z,-2.14
2019-01-26T15:38:56.055Z,-2.13
2019-01-26T15:41:04.366Z,-2.15
2019-01-26T15:43:11.328Z,-2.16
2019-01-26T15:45:22.847Z,-2.15
2019-01-26T15:47:29.721Z,-2.12
2019-01-26T15:49:36.498Z,-2.14
2019-01-26T15:51:43.400Z,-2.14
2019-01-26T15:53:53.113Z,-2.14
2019-01-26T15:56:02.599Z,-2.14
2019-01-26T15:58:12.430Z,-2.15
2019-01-26T16:00:26.381Z,-2.17
2019-01-26T16:02:34.309Z,-2.18
2019-01-26T16:04:43.390Z,-2.17
2019-01-26T16:06:50.157Z,-2.18
2019-01-26T16:08:56.740Z,-2.19
2019-01-26T16:11:03.458Z,-2.19
2019-01-26T16:13:10.050Z,-2.18
2019-01-26T16:15:23.711Z,-2.21
2019-01-26T16:17:30.410Z,-2.17
2019-01-26T16:19:37.501Z,-2.18
2019-01-26T16:21:47.798Z,-2.17
2019-01-26T16:24:03.420Z,-2.20
2019-01-26T16:26:15.584Z,-2.17
2019-01-26T16:28:29.154Z,-2.14
2019-01-26T16:30:39.628Z,-2.11
2019-01-26T16:32:47.442Z,-2.10
2019-01-26T16:34:54.351Z,-2.10
2019-01-26T16:37:01.370Z,-2.10
2019-01-26T16:39:09.780Z,-2.11
2019-01-26T16:41:17.901Z,-2.11
2019-01-26T16:43:27.795Z,-2.09
2019-01-26T16:45:39.002Z,-2.08
2019-01-26T16:47:50.823Z,-2.06
2019-01-26T16:49:58.737Z,-2.09
2019-01-26T16:52:05.531Z,-2.10
2019-01-26T16:54:15.663Z,-2.14
2019-01-26T16:56:28.730Z,-2.16
2019-01-26T16:58:42.931Z,-2.13
2019-01-26T17:00:49.623Z,-2.13
2019-01-26T17:02:56.367Z,-2.13
2019-01-26T17:05:04.317Z,-2.12
2019-01-26T17:07:11.021Z,-2.10
2019-01-26T17:09:20.985Z,-2.13
2019-01-26T17:11:34.261Z,-2.13
2019-01-26T17:13:45.756Z,-2.15
2019-01-26T17:15:53.205Z,-2.14
2019-01-26T17:18:00.406Z,-2.15
2019-01-26T17:20:34.598Z,-2.16
2019-01-26T17:22:37.085Z,-2.14
2019-01-26T17:24:45.168Z,-2.14
2019-01-26T17:26:53.573Z,-2.13
2019-01-26T17:29:00.360Z,-2.14
2019-01-26T17:31:06.887Z,-2.13
2019-01-26T17:33:15.878Z,-2.14
2019-01-26T17:35:27.155Z,-2.12
2019-01-26T17:37:40.193Z,-2.11
2019-01-26T17:39:50.379Z,-2.12
2019-01-26T17:42:04.115Z,-2.10
2019-01-26T17:44:19.633Z,-2.12
2019-01-26T17:46:33.688Z,-2.13
2019-01-26T17:48:50.738Z,-2.14
2019-01-26T17:50:59.931Z,-2.18
2019-01-26T17:53:09.192Z,-2.17
2019-01-26T17:55:15.923Z,-2.19
2019-01-26T17:57:26.015Z,-2.19
2019-01-26T17:59:37.323Z,-2.20
2019-01-26T18:01:51.220Z,-2.23
2019-01-26T18:04:04.255Z,-2.19
2019-01-26T18:06:11.940Z,-2.16
2019-01-26T18:08:18.699Z,-2.15
2019-01-26T18:12:40.502Z,-2.16
2019-01-26T18:14:47.322Z,-2.17
2019-01-26T18:16:54.332Z,-2.17
2019-01-26T18:19:01.540Z,-2.14
2019-01-26T18:21:08.897Z,-2.14
2019-01-26T18:23:17.850Z,-2.17
2019-01-26T18:25:26.281Z,-2.21
2019-01-26T18:27:33.289Z,-2.20
2019-01-26T18:29:40.039Z,-2.23
2019-01-26T18:31:46.910Z,-2.21
2019-01-26T18:33:53.897Z,-2.21
2019-01-26T18:36:01.280Z,-2.21
2019-01-26T18:38:08.057Z,-2.23
2019-01-26T18:40:22.769Z,-2.23
2019-01-26T18:42:29.548Z,-2.24
2019-01-26T18:44:38.400Z,-2.24
2019-01-26T18:46:47.111Z,-2.21
2019-01-26T18:48:54.007Z,-2.21
2019-01-26T18:51:00.920Z,-2.18
2019-01-26T18:53:07.707Z,-2.17
2019-01-26T18:55:14.613Z,-2.18
2019-01-26T18:57:21.305Z,-2.16
2019-01-26T18:59:28.163Z,-2.17
2019-01-26T19:01:34.832Z,-2.17
2019-01-26T19:03:51.705Z,-2.17
2019-01-26T19:06:00.783Z,-2.15
2019-01-26T19:08:08.027Z,-2.15
2019-01-26T19:10:15.403Z,-2.19
2019-01-26T19:12:22.107Z,-2.20
2019-01-26T19:14:29.127Z,-2.22
2019-01-26T19:16:36.542Z,-2.27
2019-01-26T19:18:43.374Z,-2.26
2019-01-26T19:20:50.128Z,-2.24
2019-01-26T19:23:01.878Z,-2.22
2019-01-26T19:25:13.830Z,-2.22
2019-01-26T19:27:22.486Z,-2.21
2019-01-26T19:29:29.402Z,-2.18
2019-01-26T19:31:36.351Z,-2.20
2019-01-26T19:33:44.408Z,-2.19
2019-01-26T19:35:51.648Z,-2.15
2019-01-26T19:37:58.565Z,-2.17
2019-01-26T19:40:14.442Z,-2.17
2019-01-26T19:42:21.494Z,-2.16
2019-01-26T19:44:28.189Z,-2.16
2019-01-26T19:46:35.176Z,-2.16
2019-01-26T19:48:42.214Z,-2.16
2019-01-26T19:50:49.003Z,-2.18
2019-01-26T19:52:56.351Z,-2.18
2019-01-26T19:55:03.043Z,-2.15
2019-01-26T19:57:10.031Z,-2.13
2019-01-26T19:59:17.900Z,-2.11
2019-01-26T20:01:25.665Z,-2.15
2019-01-26T20:03:32.390Z,-2.15
2019-01-26T20:05:39.060Z,-2.17
2019-01-26T20:07:45.954Z,-2.17
2019-01-26T20:09:53.039Z,-2.15
2019-01-26T20:12:00.010Z,-2.14
2019-01-26T20:14:06.892Z,-2.16
2019-01-26T20:16:14.220Z,-2.17
2019-01-26T20:18:22.060Z,-2.15
2019-01-26T20:20:35.904Z,-2.14
2019-01-26T20:22:42.569Z,-2.14
2019-01-26T20:24:49.939Z,-2.13
2019-01-26T20:26:57.782Z,-2.12
2019-01-26T20:29:05.904Z,-2.12
2019-01-26T20:31:13.074Z,-2.13
2019-01-26T20:33:19.878Z,-2.11
2019-01-26T20:35:26.262Z,-2.09
2019-01-26T20:37:33.203Z,-2.11
2019-01-26T20:39:41.935Z,-2.10
2019-01-26T20:41:48.650Z,-2.11
2019-01-26T20:43:55.596Z,-2.10
2019-01-26T20:46:03.105Z,-2.10
2019-01-26T20:48:10.440Z,-2.09
2019-01-26T20:50:17.241Z,-2.12
2019-01-26T20:52:23.990Z,-2.17
2019-01-26T20:54:30.594Z,-2.22
2019-01-26T20:56:37.334Z,-2.22
2019-01-26T20:58:44.705Z,-2.19
2019-01-26T21:00:51.333Z,-2.19
2019-01-26T21:02:58.484Z,-2.17
2019-01-26T21:05:06.329Z,-2.16
2019-01-26T21:07:14.845Z,-2.16
2019-01-26T21:09:22.484Z,-2.15
2019-01-26T21:11:29.173Z,-2.13
2019-01-26T21:13:35.717Z,-2.12
2019-01-26T21:15:43.082Z,-2.11
2019-01-26T21:17:50.799Z,-2.09
2019-01-26T21:19:57.573Z,-2.14
2019-01-26T21:22:04.660Z,-2.13
2019-01-26T21:24:33.410Z,-2.15
2019-01-26T21:26:40.054Z,-2.18
2019-01-26T21:28:47.045Z,-2.18
2019-01-26T21:30:53.884Z,-2.17
2019-01-26T21:33:00.814Z,-2.19
2019-01-26T21:35:13.262Z,-2.21
2019-01-26T21:37:20.021Z,-2.22
2019-01-26T21:39:29.034Z,-2.23
2019-01-26T21:41:36.979Z,-2.25
2019-01-26T21:43:44.288Z,-2.25
2019-01-26T21:45:50.962Z,-2.21
2019-01-26T21:47:57.833Z,-2.17
2019-01-26T21:50:06.334Z,-2.13
2019-01-26T21:52:14.353Z,-2.11
2019-01-26T21:54:21.722Z,-2.10
2019-01-26T21:56:28.293Z,-2.07
2019-01-26T21:58:34.551Z,-2.08
2019-01-26T22:00:41.185Z,-2.07
2019-01-26T22:02:47.424Z,-2.07
2019-01-26T22:04:53.924Z,-2.08
2019-01-26T22:07:00.443Z,-2.13
2019-01-26T22:09:09.370Z,-2.11
2019-01-26T22:13:37.264Z,-2.12
2019-01-26T22:15:43.754Z,-2.08
2019-01-26T22:17:51.773Z,-2.10
2019-01-26T22:20:01.203Z,-2.09
2019-01-26T22:22:09.107Z,-2.07
2019-01-26T22:24:15.685Z,-2.05
2019-01-26T22:26:22.121Z,-2.05
2019-01-26T22:28:28.683Z,-2.09
2019-01-26T22:30:36.340Z,-2.09
2019-01-26T22:32:43.524Z,-2.06
2019-01-26T22:34:53.632Z,-2.04
2019-01-26T22:37:00.533Z,-2.03
2019-01-26T22:39:09.840Z,-2.06
2019-01-26T22:41:17.303Z,-2.13
2019-01-26T22:43:23.737Z,-2.13
2019-01-26T22:45:30.324Z,-2.12
2019-01-26T22:47:37.683Z,-2.11
2019-01-26T22:49:44.122Z,-2.11
2019-01-26T22:51:53.401Z,-2.13
2019-01-26T22:54:00.533Z,-2.13
2019-01-26T22:56:07.966Z,-2.14
2019-01-26T22:58:14.690Z,-2.16
2019-01-26T23:00:53.055Z,-2.14
2019-01-26T23:03:02.075Z,-2.15
2019-01-26T23:05:44.886Z,-2.15
2019-01-26T23:07:52.925Z,-2.16
2019-01-26T23:10:12.093Z,-2.15
2019-01-26T23:12:47.913Z,-2.18
2019-01-26T23:15:13.564Z,-2.16
2019-01-26T23:17:27.403Z,-2.15
2019-01-26T23:19:44.723Z,-2.10
2019-01-26T23:22:15.368Z,-2.11
2019-01-26T23:24:32.690Z,-2.08
2019-01-26T23:27:11.800Z,-2.09
2019-01-26T23:29:44.911Z,-2.10
2019-01-26T23:31:51.563Z,-2.15
2019-01-26T23:33:57.805Z,-2.17
2019-01-26T23:36:04.363Z,-2.16
2019-01-26T23:38:12.090Z,-2.15
2019-01-26T23:40:18.483Z,-2.15
2019-01-26T23:42:24.770Z,-2.16
2019-01-26T23:44:31.054Z,-2.13
2019-01-26T23:46:38.432Z,-2.19
2019-01-26T23:48:44.763Z,-2.17
2019-01-26T23:50:51.115Z,-2.16
2019-01-26T23:52:57.326Z,-2.15
2019-01-26T23:55:03.974Z,-2.15
2019-01-26T23:57:11.914Z,-2.16
2019-01-26T23:59:19.643Z,-2.15
